Terminal Aerodrome Forecast
Issued by NWS Shreveport, LA

Home | Current Version | Previous Version | Text Only | Print | Product List | Glossary On
Versions: 1 2 3 4 5 6 7 8 9 10 11 12 13 14 15 16 17 18 19
000
FTUS44 KSHV 121700 RRA
TAFELD
TAF
KELD 121742Z 1218/1318 VRB05KT P6SM FEW040
     FM130100 00000KT P6SM FEW250
     FM131200 00000KT 4SM BR SKC
      TEMPO 1313/1314 6SM HZ
     FM131400 21004KT P6SM SCT250=

USA.gov is the U.S. government's official web portal to all federal, state and local government web resources and services.